Monticello Municipal Ellis Field Monticello US
ICAO: KLLQ
IATA: LLQ
Category: Medium
Scheduled Services: No

Elevation: 270 ft
TransAlt. 18000 ft.

Airport Communications:
ASOS:133.325
MEMPHIS CNTR:135.875
JONESBORO RDO:122.1
CTAF/UNICOM:122.8

KLLQ Zoom In..

Runways:

(A) RW 03 length 5020 ft width 75 ft
---- / hdg 31

(B) RW 21 length 5020 ft width 75 ft
---- / hdg 211

Location; KLLQ
Day. 22 / Time. 03.53 Zulu
* Altimeter: 29.89
* Temperature: 19° c. 66.2°f.
* Wind from: 180° Speed 11 kn with Gusts up to 21 kn.
Dewpoint: 14° c.
Visibility: 10 Statute Miles.
Clouds: Few 2200 ft.
Clouds: Broken 2700 ft.
Clouds: Overcast 5500 ft.

KLLQ 220353Z AUTO 18011G21KT 10SM FEW022 BKN027 OVC055 19/14 A2989 RMK AO2 SLP120 T01890144 $


Wind From 180°
Speed 11 kn.

jpsM music video
CHECK IT OUT

jpsM - It Moves..

 
jpsmedia.com for Web Design  worldairports.se 2018   terms of use